C.s.rainbow — 3EFB2 — position and weather

sailwx.info

Track history (hours):
 
Tides and Currents Weather Stations Pressure Air Temp Water Temp Dewpoint Dewpoint Depression Visibility Wind Speed Wind Dir Waves Ship Positions

C.s.rainbow

Last reported at 2014-Jul-24 12:07 UTC. Time now 2014-Jul-24 15:18 UTC.
Position S 27°09' E 153°60'.

Length 190 m; draft 11.6 m.

Type: Cargo ship. MMSI: 371986000.

Date/timePositionNaut miles runAvg speedWind from/ knotsBaromVisibWave heightAir tempDewpointWater temp
2014-Jul-24 12:07S 27°09' E 153°60'29911.6
2014-Jul-23 10:15S 32°03' E 152°51'2411.5
2014-Jul-23 08:11S 32°25' E 152°42'711.5
2014-Jul-23 07:33S 32°32' E 152°38'1211.8
2014-Jul-23 06:33S 32°39' E 152°27'1211.7
2014-Jul-23 05:33S 32°47' E 152°17'1211.8
2014-Jul-23 04:33S 32°54' E 152°05'1211.5
2014-Jul-23 03:33S 32°59' E 151°53'6 6.3
2014-Jul-23 02:33S 32°55' E 151°48'1 0.1
2014-Jul-22 01:07S 32°54' E 151°46'0 0.0
2014-Jul-21 23:05S 32°54' E 151°46'1 0.1
2014-Jul-21 18:33S 32°54' E 151°46'6 5.6
2014-Jul-21 17:33S 32°57' E 151°51'4 4.4
2014-Jul-21 16:34S 32°56' E 151°56'6 5.6
2014-Jul-21 15:34S 32°54' E 152°02'9 9.1
2014-Jul-21 14:33S 32°50' E 152°12'9 9.0
2014-Jul-21 13:34S 32°44' E 152°20'9 8.8
2014-Jul-21 12:34S 32°39' E 152°28'9 9.1
2014-Jul-21 11:31S 32°32' E 152°37'9 8.8
2014-Jul-21 10:33S 32°25' E 152°42'2410.5
2014-Jul-21 08:16S 32°03' E 152°52'25310.2
2014-Jul-20 07:27S 27°56' E 154°00'8 7.9
2014-Jul-20 06:29S 27°49' E 154°00'7 7.7
2014-Jul-20 05:32S 27°41' E 154°00'  
Track history (hours):
 
Tides and Currents Weather Stations Pressure Air Temp Water Temp Dewpoint Dewpoint Depression Visibility Wind Speed Wind Dir Waves Ship Positions

C.s.rainbow

Last reported at 2014-Jul-24 12:07 UTC. Time now 2014-Jul-24 15:18 UTC.
Position S 27°09' E 153°60'.

Length 190 m; draft 11.6 m.

Type: Cargo ship. MMSI: 371986000.

Date/timePositionNaut miles runAvg speedWind from/ knotsBaromVisibWave heightAir tempDewpointWater temp
2014-Jul-24 12:07S 27°09' E 153°60'29911.6
2014-Jul-23 10:15S 32°03' E 152°51'2411.5
2014-Jul-23 08:11S 32°25' E 152°42'711.5
2014-Jul-23 07:33S 32°32' E 152°38'1211.8
2014-Jul-23 06:33S 32°39' E 152°27'1211.7
2014-Jul-23 05:33S 32°47' E 152°17'1211.8
2014-Jul-23 04:33S 32°54' E 152°05'1211.5
2014-Jul-23 03:33S 32°59' E 151°53'6 6.3
2014-Jul-23 02:33S 32°55' E 151°48'1 0.1
2014-Jul-22 01:07S 32°54' E 151°46'0 0.0
2014-Jul-21 23:05S 32°54' E 151°46'1 0.1
2014-Jul-21 18:33S 32°54' E 151°46'6 5.6
2014-Jul-21 17:33S 32°57' E 151°51'4 4.4
2014-Jul-21 16:34S 32°56' E 151°56'6 5.6
2014-Jul-21 15:34S 32°54' E 152°02'9 9.1
2014-Jul-21 14:33S 32°50' E 152°12'9 9.0
2014-Jul-21 13:34S 32°44' E 152°20'9 8.8
2014-Jul-21 12:34S 32°39' E 152°28'9 9.1
2014-Jul-21 11:31S 32°32' E 152°37'9 8.8
2014-Jul-21 10:33S 32°25' E 152°42'2410.5
2014-Jul-21 08:16S 32°03' E 152°52'25310.2
2014-Jul-20 07:27S 27°56' E 154°00'8 7.9
2014-Jul-20 06:29S 27°49' E 154°00'7 7.7
2014-Jul-20 05:32S 27°41' E 154°00'  

Dump ship's entire track history